sensor_id;sensor_type;location;lat;lon;timestamp;pressure;altitude;pressure_sealevel;temperature;humidity
55604;BME280;41468;48.838;9.330;2022-09-09T00:01:51;97976.69;;;16.01;69.53
55604;BME280;41468;48.838;9.330;2022-09-09T00:04:26;97979.78;;;16.03;69.49
55604;BME280;41468;48.838;9.330;2022-09-09T00:07:03;97983.34;;;16.04;69.22
55604;BME280;41468;48.838;9.330;2022-09-09T00:09:39;97976.56;;;16.08;69.16
55604;BME280;41468;48.838;9.330;2022-09-09T00:12:19;97972.16;;;16.14;69.09
55604;BME280;41468;48.838;9.330;2022-09-09T00:14:54;97967.03;;;16.13;69.26
55604;BME280;41468;48.838;9.330;2022-09-09T00:17:34;97967.88;;;16.10;69.25
55604;BME280;41468;48.838;9.330;2022-09-09T00:20:12;97963.25;;;16.03;69.72
55604;BME280;41468;48.838;9.330;2022-09-09T00:22:51;97961.44;;;16.16;69.24
55604;BME280;41468;48.838;9.330;2022-09-09T00:25:29;97966.66;;;16.11;69.18
55604;BME280;41468;48.838;9.330;2022-09-09T00:28:10;97966.63;;;16.14;68.73
55604;BME280;41468;48.838;9.330;2022-09-09T00:30:43;97960.75;;;16.12;69.17
55604;BME280;41468;48.838;9.330;2022-09-09T00:33:16;97961.94;;;16.11;68.56
55604;BME280;41468;48.838;9.330;2022-09-09T00:35:50;97955.94;;;15.93;68.88
55604;BME280;41468;48.838;9.330;2022-09-09T00:38:26;97958.56;;;16.23;68.80
55604;BME280;41468;48.838;9.330;2022-09-09T00:41:03;97952.09;;;16.10;69.12
55604;BME280;41468;48.838;9.330;2022-09-09T00:43:36;97964.38;;;16.06;69.14
55604;BME280;41468;48.838;9.330;2022-09-09T00:46:27;97955.13;;;16.19;68.52
55604;BME280;41468;48.838;9.330;2022-09-09T00:49:07;97958.63;;;15.96;70.61
55604;BME280;41468;48.838;9.330;2022-09-09T00:51:46;97958.47;;;16.07;70.59
55604;BME280;41468;48.838;9.330;2022-09-09T00:54:35;97956.91;;;16.06;68.68
55604;BME280;41468;48.838;9.330;2022-09-09T00:57:15;97951.22;;;16.17;68.49
55604;BME280;41468;48.838;9.330;2022-09-09T00:59:52;97960.28;;;16.17;67.42
55604;BME280;41468;48.838;9.330;2022-09-09T01:02:28;97961.94;;;16.35;67.69
55604;BME280;41468;48.838;9.330;2022-09-09T01:05:05;97967.41;;;16.38;67.20
55604;BME280;41468;48.838;9.330;2022-09-09T01:07:36;97968.63;;;16.57;66.42
55604;BME280;41468;48.838;9.330;2022-09-09T01:10:17;97968.84;;;16.66;66.05
55604;BME280;41468;48.838;9.330;2022-09-09T01:12:52;97957.72;;;16.70;66.08
55604;BME280;41468;48.838;9.330;2022-09-09T01:15:28;97968.47;;;16.44;66.34
55604;BME280;41468;48.838;9.330;2022-09-09T01:18:02;97968.09;;;16.42;66.76
55604;BME280;41468;48.838;9.330;2022-09-09T01:20:39;97955.56;;;16.38;66.95
55604;BME280;41468;48.838;9.330;2022-09-09T01:23:29;97969.25;;;16.45;67.19
55604;BME280;41468;48.838;9.330;2022-09-09T01:26:15;97960.38;;;16.34;67.35
55604;BME280;41468;48.838;9.330;2022-09-09T01:28:48;97962.25;;;16.17;67.77
55604;BME280;41468;48.838;9.330;2022-09-09T01:31:21;97963.34;;;16.43;67.17
55604;BME280;41468;48.838;9.330;2022-09-09T01:33:53;97962.28;;;16.37;66.86
55604;BME280;41468;48.838;9.330;2022-09-09T01:36:28;97964.19;;;16.40;66.75
55604;BME280;41468;48.838;9.330;2022-09-09T01:38:59;97979.59;;;16.41;66.12
55604;BME280;41468;48.838;9.330;2022-09-09T01:41:32;97979.06;;;16.46;66.14
55604;BME280;41468;48.838;9.330;2022-09-09T01:44:02;97984.09;;;16.51;66.00
55604;BME280;41468;48.838;9.330;2022-09-09T01:46:32;97976.28;;;16.26;66.51
55604;BME280;41468;48.838;9.330;2022-09-09T01:49:04;97980.06;;;16.36;66.37
55604;BME280;41468;48.838;9.330;2022-09-09T01:51:38;97978.38;;;16.42;65.88
55604;BME280;41468;48.838;9.330;2022-09-09T01:54:08;97972.25;;;16.31;66.82
55604;BME280;41468;48.838;9.330;2022-09-09T01:56:47;97973.22;;;16.20;67.29
55604;BME280;41468;48.838;9.330;2022-09-09T01:59:48;97972.97;;;16.35;67.14
55604;BME280;41468;48.838;9.330;2022-09-09T02:02:24;97972.00;;;16.45;66.46
55604;BME280;41468;48.838;9.330;2022-09-09T02:05:01;97961.94;;;16.35;66.66
55604;BME280;41468;48.838;9.330;2022-09-09T02:07:38;97964.47;;;16.26;66.71
55604;BME280;41468;48.838;9.330;2022-09-09T02:10:11;97964.47;;;16.26;66.89
55604;BME280;41468;48.838;9.330;2022-09-09T02:12:46;97953.84;;;16.24;67.26
55604;BME280;41468;48.838;9.330;2022-09-09T02:15:23;97963.97;;;16.31;67.39
55604;BME280;41468;48.838;9.330;2022-09-09T02:17:57;97958.47;;;16.31;67.13
55604;BME280;41468;48.838;9.330;2022-09-09T02:20:29;97961.44;;;16.16;67.28
55604;BME280;41468;48.838;9.330;2022-09-09T02:23:01;97966.25;;;16.36;66.98
55604;BME280;41468;48.838;9.330;2022-09-09T02:25:33;97970.69;;;16.30;67.10
55604;BME280;41468;48.838;9.330;2022-09-09T02:28:09;97980.09;;;16.32;67.14
55604;BME280;41468;48.838;9.330;2022-09-09T02:30:40;97975.13;;;16.23;67.49
55604;BME280;41468;48.838;9.330;2022-09-09T02:33:14;97980.88;;;16.33;67.31
55604;BME280;41468;48.838;9.330;2022-09-09T02:35:45;97972.19;;;16.11;68.10
55604;BME280;41468;48.838;9.330;2022-09-09T02:38:16;97962.16;;;15.97;68.99
55604;BME280;41468;48.838;9.330;2022-09-09T02:40:47;97964.44;;;15.78;69.80
55604;BME280;41468;48.838;9.330;2022-09-09T02:43:19;97972.72;;;16.02;69.12
55604;BME280;41468;48.838;9.330;2022-09-09T02:45:55;97979.75;;;16.07;69.19
55604;BME280;41468;48.838;9.330;2022-09-09T02:48:33;97982.06;;;16.08;69.17
55604;BME280;41468;48.838;9.330;2022-09-09T02:51:08;97976.22;;;16.06;68.96
55604;BME280;41468;48.838;9.330;2022-09-09T02:53:43;97974.66;;;16.05;70.24
55604;BME280;41468;48.838;9.330;2022-09-09T02:56:18;97977.56;;;15.67;71.70
55604;BME280;41468;48.838;9.330;2022-09-09T02:58:52;97979.13;;;15.68;71.75
55604;BME280;41468;48.838;9.330;2022-09-09T03:01:22;97970.38;;;15.46;72.18
55604;BME280;41468;48.838;9.330;2022-09-09T03:03:51;97966.44;;;15.17;74.01
55604;BME280;41468;48.838;9.330;2022-09-09T03:06:21;97963.88;;;15.60;72.11
55604;BME280;41468;48.838;9.330;2022-09-09T03:08:51;97966.00;;;15.76;71.36
55604;BME280;41468;48.838;9.330;2022-09-09T03:11:21;97967.31;;;15.41;72.79
55604;BME280;41468;48.838;9.330;2022-09-09T03:13:53;97959.34;;;15.19;73.55
55604;BME280;41468;48.838;9.330;2022-09-09T03:16:23;97957.56;;;15.63;71.84
55604;BME280;41468;48.838;9.330;2022-09-09T03:18:53;97949.22;;;15.67;70.54
55604;BME280;41468;48.838;9.330;2022-09-09T03:21:23;97947.50;;;15.49;71.09
55604;BME280;41468;48.838;9.330;2022-09-09T03:23:52;97952.81;;;15.64;70.65
55604;BME280;41468;48.838;9.330;2022-09-09T03:26:23;97963.25;;;15.49;70.62
55604;BME280;41468;48.838;9.330;2022-09-09T03:28:56;97961.97;;;15.57;70.49
55604;BME280;41468;48.838;9.330;2022-09-09T03:31:27;97959.47;;;15.66;70.33
55604;BME280;41468;48.838;9.330;2022-09-09T03:33:57;97962.03;;;15.81;69.93
55604;BME280;41468;48.838;9.330;2022-09-09T03:36:27;97963.72;;;15.71;69.77
55604;BME280;41468;48.838;9.330;2022-09-09T03:38:57;97967.75;;;15.66;70.23
55604;BME280;41468;48.838;9.330;2022-09-09T03:41:27;97958.34;;;15.64;70.08
55604;BME280;41468;48.838;9.330;2022-09-09T03:43:59;97962.56;;;15.68;69.90
55604;BME280;41468;48.838;9.330;2022-09-09T03:46:29;97955.16;;;15.65;70.48
55604;BME280;41468;48.838;9.330;2022-09-09T03:48:59;97956.41;;;15.88;69.71
55604;BME280;41468;48.838;9.330;2022-09-09T03:51:29;97959.81;;;15.68;70.25
55604;BME280;41468;48.838;9.330;2022-09-09T03:53:58;97957.19;;;15.61;70.84
55604;BME280;41468;48.838;9.330;2022-09-09T03:56:28;97960.72;;;15.62;70.67
55604;BME280;41468;48.838;9.330;2022-09-09T03:59:00;97960.47;;;15.52;70.76
55604;BME280;41468;48.838;9.330;2022-09-09T04:01:30;97972.41;;;15.42;71.01
55604;BME280;41468;48.838;9.330;2022-09-09T04:04:00;97958.19;;;15.47;71.02
55604;BME280;41468;48.838;9.330;2022-09-09T04:06:30;97963.88;;;15.60;70.51
55604;BME280;41468;48.838;9.330;2022-09-09T04:09:00;97958.94;;;15.48;70.53
55604;BME280;41468;48.838;9.330;2022-09-09T04:11:30;97966.28;;;15.58;70.42
55604;BME280;41468;48.838;9.330;2022-09-09T04:14:02;97964.31;;;15.86;69.65
55604;BME280;41468;48.838;9.330;2022-09-09T04:16:33;97973.13;;;15.73;69.23
55604;BME280;41468;48.838;9.330;2022-09-09T04:19:03;97965.88;;;15.87;69.13
55604;BME280;41468;48.838;9.330;2022-09-09T04:21:34;97967.75;;;15.66;69.73
55604;BME280;41468;48.838;9.330;2022-09-09T04:24:04;97967.63;;;15.77;69.38
55604;BME280;41468;48.838;9.330;2022-09-09T04:26:34;97972.50;;;15.93;68.87
55604;BME280;41468;48.838;9.330;2022-09-09T04:29:07;97968.41;;;15.77;69.09
55604;BME280;41468;48.838;9.330;2022-09-09T04:31:37;97973.44;;;15.83;69.20
55604;BME280;41468;48.838;9.330;2022-09-09T04:34:08;97972.13;;;15.91;68.72
55604;BME280;41468;48.838;9.330;2022-09-09T04:36:38;97980.03;;;15.89;68.96
55604;BME280;41468;48.838;9.330;2022-09-09T04:39:08;97985.06;;;15.94;68.66
55604;BME280;41468;48.838;9.330;2022-09-09T04:41:38;97990.28;;;15.88;68.68
55604;BME280;41468;48.838;9.330;2022-09-09T04:44:10;97984.34;;;15.90;68.90
55604;BME280;41468;48.838;9.330;2022-09-09T04:46:40;97978.59;;;15.81;68.93
55604;BME280;41468;48.838;9.330;2022-09-09T04:49:10;97979.78;;;15.76;69.34
55604;BME280;41468;48.838;9.330;2022-09-09T04:51:40;97981.25;;;15.88;69.12
55604;BME280;41468;48.838;9.330;2022-09-09T04:54:10;97979.03;;;15.75;69.26
55604;BME280;41468;48.838;9.330;2022-09-09T04:56:40;97986.13;;;15.76;69.25
55604;BME280;41468;48.838;9.330;2022-09-09T04:59:12;97989.97;;;15.83;69.35
55604;BME280;41468;48.838;9.330;2022-09-09T05:01:42;97985.44;;;15.96;68.73
55604;BME280;41468;48.838;9.330;2022-09-09T05:04:12;97988.06;;;15.76;69.11
55604;BME280;41468;48.838;9.330;2022-09-09T05:06:42;97998.03;;;15.97;68.80
55604;BME280;41468;48.838;9.330;2022-09-09T05:09:12;98000.53;;;15.88;69.01
55604;BME280;41468;48.838;9.330;2022-09-09T05:11:42;97998.03;;;15.97;69.09
55604;BME280;41468;48.838;9.330;2022-09-09T05:14:15;97996.94;;;15.91;69.16
55604;BME280;41468;48.838;9.330;2022-09-09T05:16:45;97995.50;;;15.83;69.32
55604;BME280;41468;48.838;9.330;2022-09-09T05:19:16;98002.19;;;15.82;69.60
55604;BME280;41468;48.838;9.330;2022-09-09T05:21:46;98000.63;;;15.81;69.95
55604;BME280;41468;48.838;9.330;2022-09-09T05:24:17;98008.56;;;15.75;70.33
55604;BME280;41468;48.838;9.330;2022-09-09T05:26:46;98001.72;;;15.87;69.48
55604;BME280;41468;48.838;9.330;2022-09-09T05:29:19;98001.16;;;15.68;70.36
55604;BME280;41468;48.838;9.330;2022-09-09T05:31:48;98005.78;;;15.78;70.47
55604;BME280;41468;48.838;9.330;2022-09-09T05:34:18;98007.78;;;15.74;70.81
55604;BME280;41468;48.838;9.330;2022-09-09T05:36:49;98006.81;;;15.88;70.24
55604;BME280;41468;48.838;9.330;2022-09-09T05:39:18;98002.19;;;15.82;70.84
55604;BME280;41468;48.838;9.330;2022-09-09T05:41:48;98009.66;;;15.85;70.83
55604;BME280;41468;48.838;9.330;2022-09-09T05:44:20;98007.53;;;15.92;70.57
55604;BME280;41468;48.838;9.330;2022-09-09T05:46:50;98004.00;;;15.92;70.90
55604;BME280;41468;48.838;9.330;2022-09-09T05:49:21;98011.28;;;15.78;71.69
55604;BME280;41468;48.838;9.330;2022-09-09T05:51:51;98018.69;;;15.85;71.68
55604;BME280;41468;48.838;9.330;2022-09-09T05:54:20;98009.81;;;15.97;71.19
55604;BME280;41468;48.838;9.330;2022-09-09T05:56:50;98009.31;;;16.06;70.82
55604;BME280;41468;48.838;9.330;2022-09-09T05:59:22;98025.81;;;16.10;70.80
55604;BME280;41468;48.838;9.330;2022-09-09T06:01:52;98022.97;;;16.13;70.35
55604;BME280;41468;48.838;9.330;2022-09-09T06:04:22;98021.72;;;16.18;70.28
55604;BME280;41468;48.838;9.330;2022-09-09T06:06:52;98022.09;;;16.20;70.17
55604;BME280;41468;48.838;9.330;2022-09-09T06:09:21;98021.53;;;16.05;70.95
55604;BME280;41468;48.838;9.330;2022-09-09T06:11:51;98015.13;;;16.12;71.01
55604;BME280;41468;48.838;9.330;2022-09-09T06:14:24;98014.31;;;16.15;70.88
55604;BME280;41468;48.838;9.330;2022-09-09T06:16:54;98019.28;;;16.23;70.48
55604;BME280;41468;48.838;9.330;2022-09-09T06:19:24;98018.63;;;16.39;70.27
55604;BME280;41468;48.838;9.330;2022-09-09T06:21:53;98027.97;;;16.45;69.57
55604;BME280;41468;48.838;9.330;2022-09-09T06:24:23;98024.91;;;16.40;70.49
55604;BME280;41468;48.838;9.330;2022-09-09T06:26:53;98017.56;;;16.33;70.59
55604;BME280;41468;48.838;9.330;2022-09-09T06:29:26;98011.13;;;16.40;70.55
55604;BME280;41468;48.838;9.330;2022-09-09T06:31:56;98017.66;;;16.50;70.39
55604;BME280;41468;48.838;9.330;2022-09-09T06:34:26;98019.13;;;16.54;69.95
55604;BME280;41468;48.838;9.330;2022-09-09T06:36:56;98032.13;;;16.57;70.19
55604;BME280;41468;48.838;9.330;2022-09-09T06:39:27;98028.16;;;16.58;70.12
55604;BME280;41468;48.838;9.330;2022-09-09T06:41:56;98029.09;;;16.72;69.78
55604;BME280;41468;48.838;9.330;2022-09-09T06:44:29;98027.59;;;16.67;70.21
55604;BME280;41468;48.838;9.330;2022-09-09T06:47:01;98023.66;;;16.68;70.27
55604;BME280;41468;48.838;9.330;2022-09-09T06:49:31;98033.84;;;16.71;70.06
55604;BME280;41468;48.838;9.330;2022-09-09T06:52:01;98027.31;;;16.85;70.20
55604;BME280;41468;48.838;9.330;2022-09-09T06:54:31;98034.47;;;16.82;69.44
55604;BME280;41468;48.838;9.330;2022-09-09T06:57:04;98024.25;;;16.79;69.84
55604;BME280;41468;48.838;9.330;2022-09-09T06:59:56;98035.09;;;16.90;69.44
55604;BME280;41468;48.838;9.330;2022-09-09T07:02:26;98033.28;;;17.03;69.21
55604;BME280;41468;48.838;9.330;2022-09-09T07:04:56;98033.69;;;17.02;69.51
55604;BME280;41468;48.838;9.330;2022-09-09T07:07:26;98038.44;;;17.01;69.33
55604;BME280;41468;48.838;9.330;2022-09-09T07:09:57;98038.03;;;17.03;69.53
55604;BME280;41468;48.838;9.330;2022-09-09T07:12:27;98031.56;;;17.09;68.83
55604;BME280;41468;48.838;9.330;2022-09-09T07:14:59;98032.38;;;17.30;68.70
55604;BME280;41468;48.838;9.330;2022-09-09T07:17:28;98027.47;;;17.18;68.84
55604;BME280;41468;48.838;9.330;2022-09-09T07:19:58;98035.41;;;17.36;67.92
55604;BME280;41468;48.838;9.330;2022-09-09T07:22:28;98025.81;;;17.40;68.35
55604;BME280;41468;48.838;9.330;2022-09-09T07:24:58;98025.03;;;17.60;67.04
55604;BME280;41468;48.838;9.330;2022-09-09T07:27:28;98022.25;;;17.60;67.06
55604;BME280;41468;48.838;9.330;2022-09-09T07:30:01;98028.22;;;17.78;67.13
55604;BME280;41468;48.838;9.330;2022-09-09T07:32:31;98028.53;;;17.80;67.22
55604;BME280;41468;48.838;9.330;2022-09-09T07:35:00;98021.13;;;17.93;67.28
55604;BME280;41468;48.838;9.330;2022-09-09T07:37:30;98022.59;;;17.98;67.29
55604;BME280;41468;48.838;9.330;2022-09-09T07:40:00;98028.22;;;17.94;66.89
55604;BME280;41468;48.838;9.330;2022-09-09T07:42:30;98034.91;;;17.97;67.06
55604;BME280;41468;48.838;9.330;2022-09-09T07:45:03;98038.25;;;18.05;66.35
55604;BME280;41468;48.838;9.330;2022-09-09T07:47:33;98028.59;;;18.13;66.53
55604;BME280;41468;48.838;9.330;2022-09-09T07:50:03;98030.50;;;18.16;66.42
55604;BME280;41468;48.838;9.330;2022-09-09T07:52:33;98028.59;;;18.13;67.08
55604;BME280;41468;48.838;9.330;2022-09-09T07:55:04;98031.44;;;18.09;66.48
55604;BME280;41468;48.838;9.330;2022-09-09T07:57:34;98031.44;;;18.75;65.52
55604;BME280;41468;48.838;9.330;2022-09-09T08:00:08;98035.03;;;18.88;63.38
55604;BME280;41468;48.838;9.330;2022-09-09T08:02:38;98038.88;;;19.07;62.76
55604;BME280;41468;48.838;9.330;2022-09-09T08:05:08;98049.66;;;18.89;63.16
55604;BME280;41468;48.838;9.330;2022-09-09T08:07:37;98047.06;;;18.81;63.72
55604;BME280;41468;48.838;9.330;2022-09-09T08:10:08;98053.41;;;19.11;63.96
55604;BME280;41468;48.838;9.330;2022-09-09T08:12:37;98040.47;;;19.63;61.94
55604;BME280;41468;48.838;9.330;2022-09-09T08:15:24;98040.94;;;20.00;60.27
55604;BME280;41468;48.838;9.330;2022-09-09T08:17:54;98046.69;;;20.44;59.83
55604;BME280;41468;48.838;9.330;2022-09-09T08:20:25;98041.38;;;20.84;58.01
55604;BME280;41468;48.838;9.330;2022-09-09T08:22:55;98057.56;;;20.98;57.07
55604;BME280;41468;48.838;9.330;2022-09-09T08:25:25;98061.88;;;20.99;57.77
55604;BME280;41468;48.838;9.330;2022-09-09T08:27:55;98050.44;;;20.97;57.17
55604;BME280;41468;48.838;9.330;2022-09-09T08:30:27;98048.09;;;21.31;57.20
55604;BME280;41468;48.838;9.330;2022-09-09T08:32:57;98044.06;;;21.54;55.04
55604;BME280;41468;48.838;9.330;2022-09-09T08:35:27;98054.19;;;21.38;55.84
55604;BME280;41468;48.838;9.330;2022-09-09T08:37:59;98055.59;;;21.65;54.96
55604;BME280;41468;48.838;9.330;2022-09-09T08:40:40;98058.38;;;21.65;55.43
55604;BME280;41468;48.838;9.330;2022-09-09T08:43:15;98063.78;;;21.68;54.11
55604;BME280;41468;48.838;9.330;2022-09-09T08:45:57;98072.69;;;21.54;55.79
55604;BME280;41468;48.838;9.330;2022-09-09T08:48:41;98061.41;;;21.89;56.40
55604;BME280;41468;48.838;9.330;2022-09-09T08:51:13;98056.69;;;22.39;54.60
55604;BME280;41468;48.838;9.330;2022-09-09T08:53:47;98048.41;;;22.17;54.52
55604;BME280;41468;48.838;9.330;2022-09-09T08:56:24;98049.06;;;22.30;53.73
55604;BME280;41468;48.838;9.330;2022-09-09T08:58:56;98045.97;;;22.19;54.12
55604;BME280;41468;48.838;9.330;2022-09-09T09:01:38;98039.53;;;22.50;52.73
55604;BME280;41468;48.838;9.330;2022-09-09T09:04:32;98041.53;;;22.49;53.47
55604;BME280;41468;48.838;9.330;2022-09-09T09:07:09;98040.38;;;22.87;52.25
55604;BME280;41468;48.838;9.330;2022-09-09T09:09:48;98044.22;;;22.71;51.47
55604;BME280;41468;48.838;9.330;2022-09-09T09:12:27;98043.22;;;22.47;52.37
55604;BME280;41468;48.838;9.330;2022-09-09T09:14:59;98034.81;;;22.19;53.50
55604;BME280;41468;48.838;9.330;2022-09-09T09:17:32;98029.47;;;22.52;52.65
55604;BME280;41468;48.838;9.330;2022-09-09T09:20:10;98034.63;;;22.81;52.50
55604;BME280;41468;48.838;9.330;2022-09-09T09:22:47;98025.78;;;22.65;52.06
55604;BME280;41468;48.838;9.330;2022-09-09T09:25:21;98029.94;;;22.51;51.10
55604;BME280;41468;48.838;9.330;2022-09-09T09:27:57;98022.19;;;22.55;51.83
55604;BME280;41468;48.838;9.330;2022-09-09T09:30:30;98026.22;;;22.54;52.61
55604;BME280;41468;48.838;9.330;2022-09-09T09:33:14;98021.06;;;22.25;50.56
55604;BME280;41468;48.838;9.330;2022-09-09T09:35:48;98023.75;;;21.97;49.92
55604;BME280;41468;48.838;9.330;2022-09-09T09:38:19;98023.50;;;21.82;48.84
55604;BME280;41468;48.838;9.330;2022-09-09T09:41:09;98038.47;;;21.44;48.45
55604;BME280;41468;48.838;9.330;2022-09-09T09:43:40;98047.94;;;21.12;49.41
55604;BME280;41468;48.838;9.330;2022-09-09T09:46:20;98048.91;;;20.96;50.69
55604;BME280;41468;48.838;9.330;2022-09-09T09:49:03;98045.63;;;20.76;51.92
55604;BME280;41468;48.838;9.330;2022-09-09T09:51:33;98038.13;;;20.64;50.29
55604;BME280;41468;48.838;9.330;2022-09-09T09:54:13;98012.13;;;20.57;51.15
55604;BME280;41468;48.838;9.330;2022-09-09T09:56:45;98022.72;;;20.84;49.46
55604;BME280;41468;48.838;9.330;2022-09-09T09:59:24;98018.91;;;21.35;48.44
55604;BME280;41468;48.838;9.330;2022-09-09T10:02:14;98017.00;;;21.85;46.87
55604;BME280;41468;48.838;9.330;2022-09-09T10:04:47;98008.44;;;22.02;45.65
55604;BME280;41468;48.838;9.330;2022-09-09T10:07:18;98005.16;;;22.44;44.14
55604;BME280;41468;48.838;9.330;2022-09-09T10:09:52;98022.03;;;22.58;43.97
55604;BME280;41468;48.838;9.330;2022-09-09T10:12:31;98003.03;;;22.85;44.79
55604;BME280;41468;48.838;9.330;2022-09-09T10:15:10;98014.03;;;22.97;44.98
55604;BME280;41468;48.838;9.330;2022-09-09T10:17:55;98009.53;;;23.18;44.32
55604;BME280;41468;48.838;9.330;2022-09-09T10:20:42;98007.03;;;23.30;43.49
55604;BME280;41468;48.838;9.330;2022-09-09T10:23:28;98001.13;;;23.37;43.91
55604;BME280;41468;48.838;9.330;2022-09-09T10:26:15;98002.66;;;23.47;44.90
55604;BME280;41468;48.838;9.330;2022-09-09T10:29:01;97998.94;;;23.50;44.41
55604;BME280;41468;48.838;9.330;2022-09-09T10:31:37;98001.22;;;23.70;44.69
55604;BME280;41468;48.838;9.330;2022-09-09T10:34:19;98001.41;;;24.00;43.66
55604;BME280;41468;48.838;9.330;2022-09-09T10:36:56;97997.72;;;23.94;43.85
55604;BME280;41468;48.838;9.330;2022-09-09T10:39:34;98010.03;;;24.20;43.00
55604;BME280;41468;48.838;9.330;2022-09-09T10:42:12;98002.31;;;24.39;43.87
55604;BME280;41468;48.838;9.330;2022-09-09T10:44:53;98007.91;;;24.63;43.35
55604;BME280;41468;48.838;9.330;2022-09-09T10:47:43;98017.47;;;24.95;43.11
55604;BME280;41468;48.838;9.330;2022-09-09T10:50:30;98006.41;;;24.53;42.83
55604;BME280;41468;48.838;9.330;2022-09-09T10:53:36;98006.22;;;24.56;43.58
55604;BME280;41468;48.838;9.330;2022-09-09T10:56:11;98005.84;;;24.06;44.14
55604;BME280;41468;48.838;9.330;2022-09-09T10:58:46;98003.31;;;24.27;43.87
55604;BME280;41468;48.838;9.330;2022-09-09T11:01:21;98004.78;;;24.61;43.74
55604;BME280;41468;48.838;9.330;2022-09-09T11:03:55;97995.91;;;24.87;43.48
55604;BME280;41468;48.838;9.330;2022-09-09T11:06:30;98002.13;;;24.67;43.61
55604;BME280;41468;48.838;9.330;2022-09-09T11:09:05;97995.88;;;24.24;43.74
55604;BME280;41468;48.838;9.330;2022-09-09T11:11:39;97985.44;;;23.58;45.76
55604;BME280;41468;48.838;9.330;2022-09-09T11:14:14;97998.81;;;23.35;46.71
55604;BME280;41468;48.838;9.330;2022-09-09T11:16:50;97985.44;;;23.58;45.56
55604;BME280;41468;48.838;9.330;2022-09-09T11:19:26;97980.25;;;24.08;45.79
55604;BME280;41468;48.838;9.330;2022-09-09T11:21:59;97974.59;;;24.26;44.93
55604;BME280;41468;48.838;9.330;2022-09-09T11:24:36;97977.66;;;24.04;44.90
55604;BME280;41468;48.838;9.330;2022-09-09T11:27:11;97972.22;;;24.01;45.53
55604;BME280;41468;48.838;9.330;2022-09-09T11:30:17;97983.91;;;23.90;45.77
55604;BME280;41468;48.838;9.330;2022-09-09T11:36:26;98022.19;;;22.46;45.61
55604;BME280;41468;48.838;9.330;2022-09-09T11:39:22;98045.84;;;21.69;48.36
55604;BME280;41468;48.838;9.330;2022-09-09T11:42:23;98047.91;;;21.25;51.17
55604;BME280;41468;48.838;9.330;2022-09-09T11:44:53;98052.53;;;20.71;54.30
55604;BME280;41468;48.838;9.330;2022-09-09T11:47:25;98060.59;;;20.31;56.17
55604;BME280;41468;48.838;9.330;2022-09-09T11:50:22;98045.47;;;20.06;57.83
55604;BME280;41468;48.838;9.330;2022-09-09T11:53:14;98058.13;;;19.82;58.22
55604;BME280;41468;48.838;9.330;2022-09-09T11:55:46;98055.28;;;19.85;59.08
55604;BME280;41468;48.838;9.330;2022-09-09T11:58:19;98053.16;;;19.89;57.75
55604;BME280;41468;48.838;9.330;2022-09-09T12:00:49;98046.25;;;19.81;58.14
55604;BME280;41468;48.838;9.330;2022-09-09T12:03:35;98044.72;;;19.93;57.83
55604;BME280;41468;48.838;9.330;2022-09-09T12:06:11;98034.94;;;20.14;56.09
55604;BME280;41468;48.838;9.330;2022-09-09T12:08:44;98035.56;;;20.56;55.90
55604;BME280;41468;48.838;9.330;2022-09-09T12:11:24;98030.00;;;20.91;53.07
55604;BME280;41468;48.838;9.330;2022-09-09T12:13:59;98029.16;;;21.38;50.63
55604;BME280;41468;48.838;9.330;2022-09-09T12:16:31;98019.22;;;21.59;48.72
55604;BME280;41468;48.838;9.330;2022-09-09T12:19:12;98023.03;;;21.53;47.53
55604;BME280;41468;48.838;9.330;2022-09-09T12:21:57;98017.75;;;21.45;47.98
55604;BME280;41468;48.838;9.330;2022-09-09T12:24:36;98019.13;;;21.72;47.96
55604;BME280;41468;48.838;9.330;2022-09-09T12:27:15;98017.94;;;22.13;47.89
55604;BME280;41468;48.838;9.330;2022-09-09T12:29:57;98021.84;;;22.34;45.29
55604;BME280;41468;48.838;9.330;2022-09-09T12:32:31;98024.22;;;22.54;44.48
55604;BME280;41468;48.838;9.330;2022-09-09T12:35:03;98016.91;;;22.48;43.02
55604;BME280;41468;48.838;9.330;2022-09-09T12:37:35;98014.59;;;22.55;44.61
55604;BME280;41468;48.838;9.330;2022-09-09T12:40:19;98012.03;;;22.89;43.40
55604;BME280;41468;48.838;9.330;2022-09-09T12:42:50;98009.88;;;23.02;43.96
55604;BME280;41468;48.838;9.330;2022-09-09T12:45:25;98007.06;;;23.02;42.91
55604;BME280;41468;48.838;9.330;2022-09-09T12:47:57;98002.25;;;22.93;42.27
55604;BME280;41468;48.838;9.330;2022-09-09T12:50:29;98008.63;;;22.94;43.45
55604;BME280;41468;48.838;9.330;2022-09-09T12:53:03;98012.50;;;22.87;42.69
55604;BME280;41468;48.838;9.330;2022-09-09T12:55:36;97990.03;;;22.81;42.76
55604;BME280;41468;48.838;9.330;2022-09-09T12:58:06;97993.72;;;22.69;43.83
55604;BME280;41468;48.838;9.330;2022-09-09T13:00:49;97988.88;;;22.33;43.14
55604;BME280;41468;48.838;9.330;2022-09-09T13:03:20;97982.19;;;22.21;42.91
55604;BME280;41468;48.838;9.330;2022-09-09T13:05:50;97980.03;;;22.16;43.56
55604;BME280;41468;48.838;9.330;2022-09-09T13:08:20;97973.22;;;22.08;41.37
55604;BME280;41468;48.838;9.330;2022-09-09T13:10:54;97973.25;;;21.86;43.46
55604;BME280;41468;48.838;9.330;2022-09-09T13:13:30;97973.84;;;21.81;43.46
55604;BME280;41468;48.838;9.330;2022-09-09T13:16:19;97981.19;;;21.97;44.75
55604;BME280;41468;48.838;9.330;2022-09-09T13:18:50;97973.25;;;21.86;43.61
55604;BME280;41468;48.838;9.330;2022-09-09T13:21:31;97970.03;;;21.87;44.15
55604;BME280;41468;48.838;9.330;2022-09-09T13:24:02;97970.03;;;21.87;44.85
55604;BME280;41468;48.838;9.330;2022-09-09T13:26:34;97963.81;;;21.83;44.20
55604;BME280;41468;48.838;9.330;2022-09-09T13:29:15;97963.78;;;21.74;44.83
55604;BME280;41468;48.838;9.330;2022-09-09T13:31:50;97962.97;;;21.64;45.11
55604;BME280;41468;48.838;9.330;2022-09-09T13:34:30;97968.09;;;21.75;44.65
55604;BME280;41468;48.838;9.330;2022-09-09T13:37:01;97960.06;;;21.68;43.96
55604;BME280;41468;48.838;9.330;2022-09-09T13:39:33;97973.19;;;21.67;44.45
55604;BME280;41468;48.838;9.330;2022-09-09T13:42:05;97955.50;;;21.92;44.55